Time;durP1;ratioP1;P1;durP2;ratioP2;P2;SDS_P1;SDS_P2;PMS_P1;PMS_P2;Temp;Humidity;BMP_temperature;BMP_pressure;BME280_temperature;BME280_humidity;BME280_pressure;Samples;Min_cycle;Max_cycle;Signal;HPM_P1;HPM_P2
2023/04/15 00:00:50;;;;;;;5.70;3.50;;;;;;;-1.05;100.00;91998.56;2061764;28;20114;-85
2023/04/15 00:02:27;;;;;;;7.18;3.50;;;;;;;-1.04;100.00;92000.03;2068079;28;20034;-82
2023/04/15 00:03:37;;;;;;;8.95;3.58;;;;;;;-1.08;100.00;91995.91;2054949;28;20093;-85
2023/04/15 00:04:38;;;;;;;10.63;3.47;;;;;;;-1.01;100.00;91998.53;2058549;28;20026;-84
2023/04/15 00:05:40;;;;;;;6.70;3.25;;;;;;;-1.05;100.00;92003.06;2056562;28;20472;-83
2023/04/15 00:07:07;;;;;;;5.03;3.10;;;;;;;-1.07;100.00;92005.28;2064558;28;20069;-86
2023/04/15 00:08:21;;;;;;;5.05;3.20;;;;;;;-1.04;100.00;91991.44;2068104;28;20545;-82
2023/04/15 00:09:25;;;;;;;5.32;3.55;;;;;;;-1.04;100.00;92007.91;2066705;28;20533;-82
2023/04/15 00:10:42;;;;;;;;;;;;;;;;;;;;;
2023/04/15 00:12:02;;;;;;;5.70;3.35;;;;;;;-1.12;100.00;91998.53;2079607;28;20029;-82
2023/04/15 00:13:16;;;;;;;8.43;4.03;;;;;;;-1.09;100.00;92003.03;2072486;28;20046;-82
2023/04/15 00:14:35;;;;;;;8.65;3.80;;;;;;;-1.16;100.00;91994.38;2051814;28;20027;-84
2023/04/15 00:15:58;;;;;;;7.47;3.72;;;;;;;-1.21;100.00;91987.63;2060790;28;20498;-83
2023/04/15 00:17:31;;;;;;;8.40;3.60;;;;;;;-1.20;100.00;92001.47;2073877;28;20136;-84
2023/04/15 00:18:50;;;;;;;7.43;3.38;;;;;;;-1.21;100.00;91997.38;2075859;28;20051;-83
2023/04/15 00:20:05;;;;;;;6.32;3.17;;;;;;;-1.24;100.00;91996.22;2076299;28;20033;-84
2023/04/15 00:21:21;;;;;;;5.88;3.40;;;;;;;-1.25;100.00;92002.59;2064748;28;20065;-82
2023/04/15 00:22:31;;;;;;;5.68;3.40;;;;;;;-1.19;100.00;91995.84;2068141;28;20026;-84
2023/04/15 00:23:43;;;;;;;;;;;;;;;-1.20;100.00;91996.25;2063132;28;20129;-83
2023/04/15 00:24:57;;;;;;;6.35;3.40;;;;;;;-1.19;100.00;91995.84;2066070;28;19917;-83
2023/04/15 00:26:01;;;;;;;6.35;3.25;;;;;;;-1.15;100.00;91996.63;2072550;28;20506;-85
2023/04/15 00:27:15;;;;;;;4.88;2.88;;;;;;;-1.13;100.00;91998.91;2080596;28;20137;-85
2023/04/15 00:28:28;;;;;;;6.28;2.90;;;;;;;-1.17;100.00;91991.00;2069405;28;20100;-82
2023/04/15 00:29:35;;;;;;;6.80;2.97;;;;;;;-1.22;100.00;91998.50;2062607;28;20030;-82
2023/04/15 00:30:41;;;;;;;7.03;3.10;;;;;;;-1.23;100.00;91994.34;2061303;28;20082;-82
2023/04/15 00:31:45;;;;;;;8.75;3.50;;;;;;;-1.28;100.00;91990.97;2053774;28;20161;-84
2023/04/15 00:33:05;;;;;;;10.48;3.78;;;;;;;-1.31;100.00;91988.34;2069361;28;20026;-83
2023/04/15 00:34:10;;;;;;;5.43;3.20;;;;;;;-1.38;100.00;91990.94;2072341;28;20156;-84
2023/04/15 00:35:13;;;;;;;8.40;2.92;;;;;;;-1.41;100.00;91992.41;2057906;28;20606;-85
2023/04/15 00:36:22;;;;;;;9.00;3.05;;;;;;;-1.44;100.00;91990.53;2063854;28;20108;-82
2023/04/15 00:37:28;;;;;;;6.97;2.72;;;;;;;-1.45;100.00;91990.88;2071295;28;20486;-84
2023/04/15 00:38:32;;;;;;;4.28;2.47;;;;;;;-1.41;100.00;91986.41;2087469;28;20551;-83
2023/04/15 00:39:35;;;;;;;11.45;3.05;;;;;;;-1.42;100.00;91987.53;2064747;28;20392;-84
2023/04/15 00:40:37;;;;;;;5.65;2.58;;;;;;;-1.40;100.00;91988.69;2062660;28;20398;-82
2023/04/15 00:41:42;;;;;;;4.20;2.83;;;;;;;-1.37;100.00;91987.19;2060339;28;20044;-84
2023/04/15 00:42:44;;;;;;;8.85;2.92;;;;;;;-1.38;100.00;91990.94;2057721;28;20019;-84
2023/04/15 00:43:45;;;;;;;6.65;2.95;;;;;;;-1.19;100.00;91989.88;2055870;28;20030;-84
2023/04/15 00:44:49;;;;;;;8.95;2.60;;;;;;;-1.16;100.00;91984.66;2061829;28;20148;-83
2023/04/15 00:45:52;;;;;;;6.82;2.90;;;;;;;-1.10;100.00;91991.06;2056629;28;20031;-82
2023/04/15 00:46:53;;;;;;;4.75;2.50;;;;;;;-1.21;100.00;91989.50;2058372;28;20042;-84
2023/04/15 00:47:55;;;;;;;6.95;2.78;;;;;;;-1.27;100.00;91992.47;2069627;28;20042;-85
2023/04/15 00:48:57;;;;;;;5.53;2.35;;;;;;;-1.31;100.00;91988.34;2076637;28;20149;-83
2023/04/15 00:50:01;;;;;;;8.18;3.03;;;;;;;-1.36;100.00;91986.84;2069678;28;20049;-81
2023/04/15 00:51:06;;;;;;;5.05;2.60;;;;;;;-1.35;100.00;91992.81;2065568;28;20019;-81
2023/04/15 00:52:12;;;;;;;6.32;2.80;;;;;;;-1.41;100.00;91995.03;2071307;28;20026;-82
2023/04/15 00:53:15;;;;;;;6.25;2.55;;;;;;;-1.48;100.00;91992.38;2074187;28;20045;-84
2023/04/15 00:54:19;;;;;;;9.38;2.58;;;;;;;-1.47;100.00;91986.03;2069590;28;20045;-82
2023/04/15 00:55:20;;;;;;;7.50;2.38;;;;;;;-1.41;100.00;91994.28;2065076;28;20496;-85
2023/04/15 00:56:23;;;;;;;4.93;2.45;;;;;;;-1.41;100.00;91987.16;2060281;28;20073;-83
2023/04/15 00:57:28;;;;;;;4.43;2.60;;;;;;;-1.40;100.00;91990.56;2065443;28;20053;-83
2023/04/15 00:58:29;;;;;;;6.05;2.35;;;;;;;-1.44;100.00;91990.53;2054724;28;20134;-84
2023/04/15 00:59:30;;;;;;;4.10;2.45;;;;;;;-1.42;100.00;91990.16;2063535;28;20018;-83
2023/04/15 01:00:31;;;;;;;6.30;2.70;;;;;;;-1.23;100.00;91994.34;2071263;28;20040;-85
2023/04/15 01:01:35;;;;;;;7.35;2.60;;;;;;;-1.23;100.00;91997.72;2067980;28;20029;-84
2023/04/15 01:02:38;;;;;;;5.70;2.80;;;;;;;-1.41;100.00;91997.66;2064905;28;20038;-83
2023/04/15 01:03:40;;;;;;;3.72;2.30;;;;;;;-1.48;100.00;92000.25;2057057;28;20037;-84
2023/04/15 01:04:41;;;;;;;6.45;2.50;;;;;;;-1.48;100.00;91999.50;2068878;28;20339;-84
2023/04/15 01:05:42;;;;;;;6.60;2.80;;;;;;;-1.54;100.00;91994.63;2075426;28;20056;-83
2023/04/15 01:06:44;;;;;;;6.05;2.60;;;;;;;-1.62;100.00;91994.94;2056334;28;20125;-84
2023/04/15 01:07:46;;;;;;;5.05;2.60;;;;;;;-1.56;100.00;91996.84;2063773;28;20105;-81
2023/04/15 01:08:47;;;;;;;5.13;2.30;;;;;;;-1.54;100.00;91992.00;2061736;28;20525;-84
2023/04/15 01:09:49;;;;;;;5.78;2.72;;;;;;;-1.53;100.00;91995.38;2076446;28;20033;-81
2023/04/15 01:10:50;;;;;;;5.05;2.63;;;;;;;-1.53;100.00;91992.75;2073836;28;20025;-85
2023/04/15 01:11:51;;;;;;;10.15;2.78;;;;;;;-1.55;100.00;91998.34;2068082;28;20034;-83
2023/04/15 01:12:52;;;;;;;8.05;2.63;;;;;;;-1.60;100.00;91990.81;2078451;28;20033;-84
2023/04/15 01:13:56;;;;;;;4.40;2.38;;;;;;;-1.59;100.00;91994.94;2058090;28;20031;-81
2023/04/15 01:14:58;;;;;;;10.20;2.67;;;;;;;-1.58;100.00;92000.94;2060618;28;20034;-85
2023/04/15 01:16:01;;;;;;;10.60;2.80;;;;;;;-1.59;100.00;91996.81;2067926;28;20033;-81
2023/04/15 01:17:03;;;;;;;5.38;2.63;;;;;;;-1.61;100.00;91996.44;2060328;28;20344;-82
2023/04/15 01:18:04;;;;;;;7.32;2.30;;;;;;;-1.68;100.00;91997.13;2059875;28;20447;-83
2023/04/15 01:19:07;;;;;;;5.82;2.70;;;;;;;-1.67;100.00;91993.41;2060376;28;20023;-81
2023/04/15 01:20:09;;;;;;;4.55;2.45;;;;;;;-1.66;100.00;91996.78;2060325;28;20125;-84
2023/04/15 01:21:12;;;;;;;7.43;2.55;;;;;;;-1.63;100.00;91998.66;2067566;28;20064;-82
2023/04/15 01:22:13;;;;;;;8.45;2.60;;;;;;;-1.65;100.00;91993.03;2075710;28;20038;-82
2023/04/15 01:23:15;;;;;;;5.40;2.40;;;;;;;-1.65;100.00;91991.19;2059732;28;20073;-85
2023/04/15 01:24:18;;;;;;;3.63;2.25;;;;;;;-1.64;100.00;91997.16;2059147;28;20026;-82
2023/04/15 01:25:32;;;;;;;4.38;2.20;;;;;;;-1.56;100.00;91991.59;2060140;28;20026;-82
2023/04/15 01:26:33;;;;;;;6.90;2.55;;;;;;;-1.54;100.00;91996.47;2061131;28;20049;-81
2023/04/15 01:27:35;;;;;;;4.05;2.17;;;;;;;-1.44;100.00;91997.66;2051199;28;20067;-82
2023/04/15 01:28:37;;;;;;;5.40;2.50;;;;;;;-1.47;100.00;91993.13;2059736;28;20485;-84
2023/04/15 01:29:38;;;;;;;4.55;2.33;;;;;;;-1.57;100.00;91995.34;2056067;28;20035;-84
2023/04/15 01:30:39;;;;;;;6.05;2.25;;;;;;;-1.59;100.00;91991.56;2048432;28;20064;-82
2023/04/15 01:31:40;;;;;;;7.30;2.78;;;;;;;-1.52;100.00;91994.25;2068539;28;20030;-83
2023/04/15 01:32:41;;;;;;;5.50;2.00;;;;;;;-1.55;100.00;91987.84;2059219;28;20041;-81
2023/04/15 01:33:42;;;;;;;4.85;2.38;;;;;;;-1.56;100.00;91985.59;2048711;28;20070;-81
2023/04/15 01:34:43;;;;;;;8.85;2.80;;;;;;;-1.61;100.00;91994.56;2069716;28;20497;-83
2023/04/15 01:35:45;;;;;;;5.55;2.53;;;;;;;-1.65;100.00;91991.19;2067954;28;20031;-81
2023/04/15 01:36:46;;;;;;;3.47;2.05;;;;;;;-1.69;100.00;91993.03;2062770;28;20030;-83
2023/04/15 01:37:48;;;;;;;7.18;2.28;;;;;;;-1.68;100.00;91991.16;2076893;28;20072;-83
2023/04/15 01:38:50;;;;;;;9.30;2.63;;;;;;;-1.69;100.00;91994.91;2059494;28;20123;-84
2023/04/15 01:39:51;;;;;;;3.33;2.15;;;;;;;-1.75;100.00;91994.50;2075154;28;20036;-81
2023/04/15 01:40:52;;;;;;;7.63;2.70;;;;;;;-1.72;100.00;91995.63;2076466;28;20030;-83
2023/04/15 01:41:53;;;;;;;8.02;2.25;;;;;;;-1.73;100.00;91992.25;2056971;28;20109;-85
2023/04/15 01:42:55;;;;;;;4.93;2.08;;;;;;;-1.69;100.00;91995.66;2056565;28;20602;-81
2023/04/15 01:43:56;;;;;;;4.10;1.70;;;;;;;-1.67;100.00;91988.16;2066956;28;20063;-81
2023/04/15 01:44:58;;;;;;;5.15;1.73;;;;;;;-1.67;100.00;91982.16;2076432;28;20714;-83
2023/04/15 01:45:59;;;;;;;3.38;1.70;;;;;;;-1.68;100.00;91993.78;2077034;28;20049;-84
2023/04/15 01:47:00;;;;;;;5.47;1.80;;;;;;;-1.74;100.00;91990.00;2075762;28;20022;-84
2023/04/15 01:48:01;;;;;;;4.88;1.83;;;;;;;-1.71;100.00;91992.66;2061623;28;20030;-84
2023/04/15 01:49:02;;;;;;;5.30;1.67;;;;;;;-1.72;100.00;91985.88;2061397;28;20515;-84
2023/04/15 01:50:05;;;;;;;6.13;1.80;;;;;;;-1.71;100.00;91994.50;2072753;28;20044;-84
2023/04/15 01:51:07;;;;;;;3.80;1.80;;;;;;;-1.75;100.00;91991.88;2057134;28;20026;-83
2023/04/15 01:52:10;;;;;;;3.25;1.65;;;;;;;-1.78;100.00;91988.09;2057118;28;20026;-82
2023/04/15 01:53:12;;;;;;;6.40;2.10;;;;;;;-1.79;100.00;91991.09;2057736;28;20518;-83
2023/04/15 01:54:13;;;;;;;7.30;1.98;;;;;;;-1.73;100.00;91987.00;2060648;28;20511;-83
2023/04/15 01:55:14;;;;;;;5.03;1.52;;;;;;;-1.73;100.00;91986.25;2060331;28;20050;-81
2023/04/15 01:56:17;;;;;;;3.95;1.70;;;;;;;-1.72;100.00;91982.53;2064370;28;20033;-85
2023/04/15 01:57:18;;;;;;;7.03;2.03;;;;;;;-1.72;100.00;91988.50;2072899;28;20030;-83
2023/04/15 01:58:21;;;;;;;4.90;1.90;;;;;;;-1.72;100.00;91988.50;2071100;28;20262;-84
2023/04/15 01:59:23;;;;;;;4.25;2.10;;;;;;;-1.80;100.00;91977.25;2058976;28;20069;-82
2023/04/15 02:00:24;;;;;;;3.28;1.80;;;;;;;-1.73;100.00;91976.53;2076062;28;20527;-82
2023/04/15 02:01:27;;;;;;;5.70;1.73;;;;;;;-1.82;100.00;91982.09;2067520;28;20049;-86
2023/04/15 02:02:28;;;;;;;5.15;2.00;;;;;;;-1.75;100.00;91976.16;2059806;28;20037;-83
2023/04/15 02:03:29;;;;;;;3.10;2.17;;;;;;;-1.73;100.00;91979.16;2051487;28;20077;-84
2023/04/15 02:04:31;;;;;;;3.67;1.60;;;;;;;-1.77;100.00;91973.16;2052775;28;20384;-83
2023/04/15 02:05:32;;;;;;;6.63;1.70;;;;;;;-1.73;100.00;91968.69;2067917;28;20390;-83
2023/04/15 02:06:33;;;;;;;4.25;2.10;;;;;;;-1.75;100.00;91972.78;2067031;28;20486;-84
2023/04/15 02:07:35;;;;;;;6.00;2.08;;;;;;;-1.77;100.00;91978.38;2051186;28;20058;-82
2023/04/15 02:08:38;;;;;;;4.88;1.70;;;;;;;-1.77;100.00;91973.88;2055117;28;20093;-82
2023/04/15 02:09:40;;;;;;;6.35;1.58;;;;;;;-1.87;100.00;91979.81;2055827;28;20062;-85
2023/04/15 02:10:41;;;;;;;8.18;1.80;;;;;;;-1.86;100.00;91981.31;2055561;28;20030;-81
2023/04/15 02:11:43;;;;;;;7.63;1.90;;;;;;;-1.93;100.00;91983.16;2055145;28;20117;-84
2023/04/15 02:12:45;;;;;;;5.05;1.88;;;;;;;-1.87;100.00;91984.31;2055803;28;20105;-81
2023/04/15 02:13:47;;;;;;;6.00;1.75;;;;;;;-1.85;100.00;91979.44;2075715;28;20364;-82
2023/04/15 02:14:50;;;;;;;2.45;1.70;;;;;;;-1.87;100.00;91984.31;2075364;28;20140;-83
2023/04/15 02:15:51;;;;;;;4.40;2.03;;;;;;;-1.87;100.00;91977.22;2051991;28;20721;-85
2023/04/15 02:16:52;;;;;;;6.20;2.00;;;;;;;-1.90;100.00;91982.41;2061083;28;20041;-85
2023/04/15 02:17:54;;;;;;;3.72;1.50;;;;;;;-1.97;100.00;91971.91;2059122;28;20068;-83
2023/04/15 02:30:53;;;;;;;;;;;;;;;-2.25;100.00;91981.06;2143360;27;21155;-83
2023/04/15 02:31:54;;;;;;;6.28;2.10;;;;;;;-2.19;100.00;91981.50;2121730;27;20006;-83
2023/04/15 02:32:55;;;;;;;4.90;2.10;;;;;;;-2.20;100.00;91978.09;2106905;28;20115;-83
2023/04/15 02:34:03;;;;;;;3.70;1.80;;;;;;;-2.19;100.00;91978.88;2099373;28;20107;-82
2023/04/15 02:35:05;;;;;;;5.32;1.60;;;;;;;-2.15;100.00;91977.78;2110850;28;20043;-81
2023/04/15 02:36:07;;;;;;;4.43;1.70;;;;;;;-2.09;100.00;91981.56;2098753;28;20062;-82
2023/04/15 02:37:10;;;;;;;2.67;1.70;;;;;;;-2.12;100.00;91977.03;2102182;28;20032;-83
2023/04/15 02:38:13;;;;;;;7.75;1.80;;;;;;;-2.05;100.00;91984.22;2119823;27;20406;-82
2023/04/15 02:39:17;;;;;;;4.65;1.77;;;;;;;-2.06;100.00;91985.34;2115057;28;20027;-82
2023/04/15 02:40:24;;;;;;;6.32;1.50;;;;;;;-2.08;100.00;91987.53;2097956;28;20102;-83
2023/04/15 02:41:27;;;;;;;9.65;1.98;;;;;;;-2.07;100.00;91978.56;2099015;28;20072;-81
2023/04/15 02:42:30;;;;;;;6.25;1.80;;;;;;;-2.14;100.00;91984.53;2100517;27;20042;-82
2023/04/15 02:43:32;;;;;;;4.63;2.17;;;;;;;-2.17;100.00;91981.88;2115117;28;20015;-81
2023/04/15 02:44:35;;;;;;;3.75;1.50;;;;;;;-2.15;100.00;91983.03;2111069;27;20020;-82
2023/04/15 02:45:36;;;;;;;6.00;1.85;;;;;;;-2.18;100.00;91983.00;2115358;27;20027;-83
2023/04/15 02:46:37;;;;;;;5.97;1.90;;;;;;;-2.16;100.00;91991.22;2106381;28;20611;-83
2023/04/15 02:47:42;;;;;;;2.63;1.55;;;;;;;-2.24;100.00;91992.28;2110251;28;20043;-82
2023/04/15 02:48:43;;;;;;;3.22;1.48;;;;;;;-2.22;100.00;91987.44;2107555;28;20474;-82
2023/04/15 02:49:44;;;;;;;4.97;1.70;;;;;;;-2.26;100.00;91990.03;2103350;28;20020;-80
2023/04/15 02:50:46;;;;;;;3.30;1.70;;;;;;;-2.34;100.00;91989.22;2107971;28;20101;-82
2023/04/15 02:51:48;;;;;;;3.67;1.67;;;;;;;-2.27;100.00;91993.78;2098696;28;20582;-81
2023/04/15 02:52:50;;;;;;;3.28;1.42;;;;;;;-2.28;100.00;91992.28;2108152;28;20714;-81
2023/04/15 02:53:51;;;;;;;4.03;1.73;;;;;;;-2.25;100.00;91982.94;2106482;28;20071;-83
2023/04/15 02:54:56;;;;;;;7.65;1.80;;;;;;;-2.32;100.00;91991.50;2108930;28;20073;-81
2023/04/15 02:55:58;;;;;;;7.30;1.95;;;;;;;-2.28;100.00;91981.81;2109993;28;20085;-83
2023/04/15 02:57:00;;;;;;;8.25;1.92;;;;;;;-2.32;100.00;91994.13;2110908;28;20020;-82
2023/04/15 02:58:01;;;;;;;8.68;2.00;;;;;;;-2.26;100.00;91994.53;2119270;27;20699;-81
2023/04/15 02:59:03;;;;;;;5.47;2.35;;;;;;;-2.31;100.00;91991.13;2110826;28;20121;-81
2023/04/15 03:00:05;;;;;;;4.60;2.28;;;;;;;-2.28;100.00;91990.41;2110970;27;20386;-82
2023/04/15 03:01:07;;;;;;;7.63;2.78;;;;;;;-2.28;100.00;91992.28;2114969;28;20012;-83
2023/04/15 03:02:08;;;;;;;9.43;2.75;;;;;;;-2.28;100.00;92000.13;2098933;28;20027;-83
2023/04/15 03:03:12;;;;;;;9.40;2.30;;;;;;;-2.29;100.00;91996.00;2101779;28;20058;-81
2023/04/15 03:04:13;;;;;;;6.13;2.08;;;;;;;-2.34;100.00;91991.09;2102810;28;20513;-82
2023/04/15 03:05:14;;;;;;;7.28;1.80;;;;;;;-2.37;100.00;91989.97;2102381;28;20051;-82
2023/04/15 03:06:15;;;;;;;9.30;2.33;;;;;;;-2.34;100.00;91985.84;2098611;28;20082;-83
2023/04/15 03:07:17;;;;;;;8.45;1.92;;;;;;;-2.33;100.00;91995.97;2103210;28;20038;-83
2023/04/15 03:08:18;;;;;;;6.28;2.20;;;;;;;-2.26;100.00;91987.41;2107107;28;20669;-83
2023/04/15 03:09:19;;;;;;;4.47;2.00;;;;;;;-2.23;100.00;91983.34;2102128;28;20027;-81
2023/04/15 03:10:20;;;;;;;10.18;2.95;;;;;;;-2.23;100.00;91985.97;2118931;27;20039;-81
2023/04/15 03:11:22;;;;;;;9.00;2.08;;;;;;;-2.22;100.00;91990.81;2123259;27;20018;-81
2023/04/15 03:12:23;;;;;;;8.77;2.20;;;;;;;-2.19;100.00;91990.09;2117259;28;20034;-82
2023/04/15 03:13:24;;;;;;;5.78;2.00;;;;;;;-2.18;100.00;91990.84;2105032;28;20183;-82
2023/04/15 03:14:26;;;;;;;5.18;1.90;;;;;;;-2.15;100.00;91979.63;2110859;28;20428;-82
2023/04/15 03:15:27;;;;;;;6.15;2.10;;;;;;;-2.17;100.00;91984.50;2105980;28;20119;-81
2023/04/15 03:16:30;;;;;;;4.70;2.20;;;;;;;-2.14;100.00;91987.13;2097675;28;20044;-81
2023/04/15 03:17:31;;;;;;;9.95;2.55;;;;;;;-2.16;100.00;91991.22;2106750;28;20107;-81
2023/04/15 03:18:32;;;;;;;6.47;2.50;;;;;;;-2.18;100.00;91977.75;2106573;28;20027;-82
2023/04/15 03:19:33;;;;;;;6.03;1.90;;;;;;;-2.12;100.00;91984.16;2110953;27;20028;-81
2023/04/15 03:20:35;;;;;;;8.85;2.30;;;;;;;-2.07;100.00;91976.69;2110719;28;20027;-82
2023/04/15 03:21:36;;;;;;;7.00;2.20;;;;;;;-2.07;100.00;91987.16;2115114;27;20028;-82
2023/04/15 03:22:37;;;;;;;6.82;2.47;;;;;;;-1.89;100.00;91981.31;2123273;27;20096;-82
2023/04/15 03:23:38;;;;;;;6.57;2.33;;;;;;;-1.91;100.00;91981.69;2106443;28;20028;-82
2023/04/15 03:24:39;;;;;;;5.80;2.15;;;;;;;-1.96;100.00;91981.28;2106813;27;20398;-83
2023/04/15 03:25:39;;;;;;;5.63;1.98;;;;;;;-2.09;100.00;91980.81;2115048;28;20477;-83
2023/04/15 03:26:40;;;;;;;5.18;2.05;;;;;;;-2.14;100.00;91978.53;2106456;28;20537;-82
2023/04/15 03:27:41;;;;;;;7.82;2.30;;;;;;;-2.18;100.00;91983.75;2109814;28;20024;-82
2023/04/15 03:28:42;;;;;;;9.30;2.45;;;;;;;-2.24;100.00;91984.44;2110547;28;20441;-82
2023/04/15 03:29:43;;;;;;;6.22;2.33;;;;;;;-2.21;100.00;91983.72;2107392;28;20490;-82
2023/04/15 03:30:44;;;;;;;7.60;2.17;;;;;;;-2.24;100.00;91987.78;2109756;28;20380;-83
2023/04/15 03:31:45;;;;;;;5.45;2.10;;;;;;;-2.28;100.00;91981.81;2109100;28;20023;-82
2023/04/15 03:32:46;;;;;;;6.85;2.10;;;;;;;-2.33;100.00;91982.13;2100757;28;20398;-83
2023/04/15 03:33:48;;;;;;;3.50;1.75;;;;;;;-2.37;100.00;91979.50;2092610;28;20029;-81
2023/04/15 03:34:49;;;;;;;3.92;1.85;;;;;;;-2.38;100.00;91985.81;2100383;28;20028;-82
2023/04/15 03:35:51;;;;;;;7.38;2.53;;;;;;;-2.33;100.00;91979.50;2099271;28;20028;-82
2023/04/15 03:36:53;;;;;;;8.27;2.40;;;;;;;-2.32;100.00;91976.53;2113476;28;20034;-82
2023/04/15 03:37:54;;;;;;;5.07;1.95;;;;;;;-2.28;100.00;91987.78;2110560;28;20024;-82
2023/04/15 03:38:55;;;;;;;4.57;2.15;;;;;;;-2.30;100.00;91982.16;2103119;28;20032;-81
2023/04/15 03:39:56;;;;;;;6.55;2.17;;;;;;;-2.31;100.00;91974.69;2101221;28;20209;-82
2023/04/15 03:40:58;;;;;;;7.32;2.20;;;;;;;-2.33;100.00;91976.88;2104869;28;20055;-82
2023/04/15 03:42:00;;;;;;;6.15;2.30;;;;;;;-2.26;100.00;91979.56;2104830;28;20024;-81
2023/04/15 03:43:02;;;;;;;4.05;2.13;;;;;;;-2.22;100.00;91984.84;2109259;27;20031;-81
2023/04/15 03:44:03;;;;;;;7.80;2.00;;;;;;;-2.22;100.00;91990.81;2109130;28;20774;-82
2023/04/15 03:45:04;;;;;;;10.00;2.13;;;;;;;-2.27;100.00;91978.06;2100614;28;20024;-81
2023/04/15 03:46:06;;;;;;;9.38;2.05;;;;;;;-2.20;100.00;91974.75;2100830;28;20020;-83
2023/04/15 03:47:08;;;;;;;7.40;2.30;;;;;;;-2.17;100.00;91981.88;2091647;28;20052;-82
2023/04/15 03:48:11;;;;;;;9.60;2.30;;;;;;;-2.14;100.00;91981.91;2096257;28;20027;-82
2023/04/15 03:49:13;;;;;;;5.35;1.63;;;;;;;-2.17;100.00;91985.25;2092580;28;20064;-81
2023/04/15 03:50:15;;;;;;;9.23;2.13;;;;;;;-2.18;100.00;91980.38;2101807;27;20019;-82
2023/04/15 03:51:17;;;;;;;4.57;1.80;;;;;;;-2.21;100.00;91976.59;2113781;27;20063;-81
2023/04/15 03:52:19;;;;;;;7.70;2.40;;;;;;;-2.23;100.00;91975.47;2100824;28;20024;-82
2023/04/15 03:53:22;;;;;;;7.45;1.88;;;;;;;-2.24;100.00;91979.19;2111295;28;20031;-80
2023/04/15 03:54:24;;;;;;;5.32;1.85;;;;;;;-2.20;100.00;91983.34;2102366;28;20031;-82
2023/04/15 03:55:25;;;;;;;7.00;2.17;;;;;;;-2.25;100.00;91988.16;2096602;28;20083;-81
2023/04/15 03:56:27;;;;;;;6.07;2.05;;;;;;;-2.22;100.00;91993.44;2096663;28;20028;-83
2023/04/15 03:57:28;;;;;;;5.10;1.88;;;;;;;-2.23;100.00;91984.09;2100375;28;20383;-82
2023/04/15 03:58:29;;;;;;;5.43;2.00;;;;;;;-2.01;100.00;91981.63;2116230;27;20047;-81
2023/04/15 03:59:30;;;;;;;3.50;1.60;;;;;;;-1.87;100.00;91979.81;2105776;28;20020;-82
2023/04/15 04:00:33;;;;;;;4.18;1.98;;;;;;;-1.86;100.00;91983.19;2095855;28;20027;-81
2023/04/15 04:01:34;;;;;;;8.05;1.75;;;;;;;-1.89;100.00;91978.69;2100768;28;20019;-81
2023/04/15 04:02:35;;;;;;;8.35;1.88;;;;;;;-1.93;100.00;91975.28;2100408;28;20158;-82
2023/04/15 04:03:36;;;;;;;7.07;1.70;;;;;;;-1.88;100.00;91977.59;2100674;28;20028;-82
2023/04/15 04:04:37;;;;;;;4.05;1.63;;;;;;;-1.93;100.00;91983.16;2104655;28;20032;-82
2023/04/15 04:05:40;;;;;;;8.75;2.03;;;;;;;-1.91;100.00;91978.31;2109058;28;20027;-82
2023/04/15 04:06:41;;;;;;;5.45;1.88;;;;;;;-1.88;100.00;91980.94;2105305;27;20027;-82
2023/04/15 04:07:42;;;;;;;8.10;2.22;;;;;;;-1.91;100.00;91978.31;2108421;28;20036;-80
2023/04/15 04:08:43;;;;;;;4.07;1.90;;;;;;;-1.92;100.00;91982.06;2104472;28;20028;-83
2023/04/15 04:09:44;;;;;;;7.28;2.03;;;;;;;-1.97;100.00;91980.53;2108665;27;20059;-82
2023/04/15 04:10:46;;;;;;;6.30;2.00;;;;;;;-1.98;100.00;91978.25;2101205;28;20042;-81
2023/04/15 04:11:47;;;;;;;11.07;2.35;;;;;;;-1.92;100.00;91977.56;2093103;28;20028;-82
2023/04/15 04:12:48;;;;;;;7.30;2.83;;;;;;;-1.85;100.00;91976.84;2097419;28;20025;-80
2023/04/15 04:13:50;;;;;;;5.90;1.90;;;;;;;-1.84;100.00;91978.34;2103315;28;20421;-81
2023/04/15 04:14:51;;;;;;;6.00;1.85;;;;;;;-1.90;100.00;91971.94;2110793;28;20035;-81
2023/04/15 04:15:53;;;;;;;6.50;2.20;;;;;;;-1.91;100.00;91980.94;2104760;28;20046;-83
2023/04/15 04:16:55;;;;;;;5.50;1.90;;;;;;;-1.90;100.00;91982.41;2110225;28;20494;-81
2023/04/15 04:17:56;;;;;;;5.45;2.00;;;;;;;-1.90;100.00;91977.19;2100307;28;20056;-81
2023/04/15 04:18:58;;;;;;;2.95;1.60;;;;;;;-1.87;100.00;91974.59;2100140;28;20387;-81
2023/04/15 04:19:59;;;;;;;5.63;2.22;;;;;;;-1.83;100.00;91977.97;2100455;28;20396;-82
2023/04/15 04:21:00;;;;;;;7.18;1.95;;;;;;;-1.80;100.00;91976.47;2103201;28;20486;-81
2023/04/15 04:22:02;;;;;;;4.90;1.88;;;;;;;-1.78;100.00;91975.00;2096235;28;20147;-82
2023/04/15 04:23:03;;;;;;;6.20;2.05;;;;;;;-1.78;100.00;91976.88;2096253;28;20604;-81
2023/04/15 04:24:04;;;;;;;5.10;2.00;;;;;;;-1.76;100.00;91974.63;2095271;28;20025;-82
2023/04/15 04:25:07;;;;;;;6.00;1.85;;;;;;;-1.75;100.00;91980.66;2095903;28;20025;-84
2023/04/15 04:26:09;;;;;;;3.97;1.65;;;;;;;-1.70;100.00;91975.81;2100412;28;20407;-81
2023/04/15 04:27:12;;;;;;;9.90;1.80;;;;;;;-1.65;100.00;91975.47;2096106;28;20036;-82
2023/04/15 04:28:15;;;;;;;5.32;2.28;;;;;;;-1.63;100.00;91972.47;2091963;28;20115;-81
2023/04/15 04:29:17;;;;;;;3.53;1.60;;;;;;;-1.61;100.00;91981.47;2100837;28;20388;-83
2023/04/15 04:30:20;;;;;;;4.15;2.00;;;;;;;-1.65;100.00;91975.47;2099653;28;20070;-83
2023/04/15 04:31:21;;;;;;;4.72;1.77;;;;;;;-1.68;100.00;91978.81;2102413;28;20020;-84
2023/04/15 04:32:24;;;;;;;4.90;1.95;;;;;;;-1.61;100.00;91985.97;2095923;28;20025;-79
2023/04/15 04:33:27;;;;;;;6.20;1.60;;;;;;;-1.63;100.00;91970.59;2108642;28;20077;-82
2023/04/15 04:34:29;;;;;;;6.53;1.88;;;;;;;-1.68;100.00;91978.81;2093964;28;20033;-82
2023/04/15 04:35:32;;;;;;;6.95;2.08;;;;;;;-1.68;100.00;91978.81;2100737;28;20497;-83
2023/04/15 04:36:33;;;;;;;3.83;1.80;;;;;;;-1.61;100.00;91981.47;2100050;28;20024;-82
2023/04/15 04:37:34;;;;;;;6.70;1.80;;;;;;;-1.57;100.00;91981.50;2091348;28;20021;-81
2023/04/15 04:38:35;;;;;;;4.20;1.77;;;;;;;-1.59;100.00;91976.59;2092347;28;20020;-81
2023/04/15 04:39:36;;;;;;;6.70;2.10;;;;;;;-1.57;100.00;91984.84;2099806;28;20093;-81
2023/04/15 04:40:37;;;;;;;4.55;1.90;;;;;;;-1.53;100.00;91987.50;2104645;28;20386;-81
2023/04/15 04:41:38;;;;;;;4.57;1.80;;;;;;;-1.53;100.00;91984.88;2104482;28;20437;-81
2023/04/15 04:42:39;;;;;;;4.72;1.70;;;;;;;-1.47;100.00;91985.28;2091906;28;20036;-82
2023/04/15 04:43:40;;;;;;;4.45;1.50;;;;;;;-1.46;100.00;91984.91;2102925;28;20070;-81
2023/04/15 04:44:41;;;;;;;3.25;1.50;;;;;;;-1.42;100.00;91980.44;2100179;28;20047;-82
2023/04/15 04:45:43;;;;;;;6.82;1.85;;;;;;;-1.36;100.00;91981.59;2108496;28;20031;-83
2023/04/15 04:46:45;;;;;;;5.72;1.90;;;;;;;-1.35;100.00;91980.47;2100450;28;20039;-82
2023/04/15 04:47:46;;;;;;;5.68;1.70;;;;;;;-1.31;100.00;91983.84;2099756;28;20020;-82
2023/04/15 04:48:47;;;;;;;5.35;1.55;;;;;;;-1.36;100.00;91978.19;2100298;28;20027;-82
2023/04/15 04:49:48;;;;;;;5.22;1.77;;;;;;;-1.31;100.00;91986.47;2099301;28;20031;-82
2023/04/15 04:50:50;;;;;;;5.15;1.77;;;;;;;-1.33;100.00;91983.44;2089038;28;20617;-81
2023/04/15 04:51:51;;;;;;;4.80;1.58;;;;;;;-1.39;100.00;91978.94;2091856;28;20435;-82
2023/04/15 04:52:52;;;;;;;5.65;1.75;;;;;;;-1.36;100.00;91983.44;2108448;28;20059;-82
2023/04/15 04:53:53;;;;;;;4.78;1.80;;;;;;;-1.31;100.00;91981.22;2116770;27;20027;-81
2023/04/15 04:54:54;;;;;;;3.55;1.65;;;;;;;-1.28;100.00;91983.09;2100173;28;20439;-82
2023/04/15 04:55:55;;;;;;;3.65;1.65;;;;;;;-1.20;100.00;91985.75;2091959;28;20029;-81
2023/04/15 04:56:57;;;;;;;2.83;1.80;;;;;;;-1.14;100.00;91989.50;2107830;28;20577;-81
2023/04/15 04:57:58;;;;;;;5.57;1.85;;;;;;;-1.14;100.00;91979.78;2101033;28;20028;-82
2023/04/15 04:58:59;;;;;;;4.57;1.75;;;;;;;-1.14;100.00;91977.19;2104430;28;20024;-82
2023/04/15 05:00:03;;;;;;;2.92;1.55;;;;;;;-1.08;100.00;91982.81;2092302;28;20494;-83
2023/04/15 05:01:04;;;;;;;4.97;1.73;;;;;;;-1.10;100.00;91988.44;2096196;28;20050;-82
2023/04/15 05:02:06;;;;;;;3.35;1.33;;;;;;;-1.10;100.00;91983.19;2092023;28;20021;-82
2023/04/15 05:03:07;;;;;;;5.85;1.67;;;;;;;-1.03;100.00;91988.44;2095801;28;20036;-82
2023/04/15 05:04:08;;;;;;;3.80;1.70;;;;;;;-1.06;100.00;91977.94;2091387;28;20024;-83
2023/04/15 05:05:10;;;;;;;5.22;1.85;;;;;;;-1.04;100.00;91989.56;2099601;28;20084;-81
2023/04/15 05:06:12;;;;;;;5.18;1.50;;;;;;;-0.99;100.00;91993.69;2112976;28;20056;-82